createdAt,value
2018-07-11T00:02:11.331Z,13.90
2018-07-11T00:04:40.662Z,11.80
2018-07-11T00:07:09.955Z,13.90
2018-07-11T00:09:39.204Z,13.90
2018-07-11T00:12:08.418Z,13.90
2018-07-11T00:14:37.706Z,13.80
2018-07-11T00:17:10.994Z,13.80
2018-07-11T00:19:40.287Z,13.90
2018-07-11T00:22:09.599Z,13.90
2018-07-11T00:24:39.968Z,13.90
2018-07-11T00:27:09.236Z,13.90
2018-07-11T00:29:39.772Z,14.00
2018-07-11T00:32:09.025Z,13.90
2018-07-11T00:34:38.274Z,13.90
2018-07-11T00:37:07.593Z,13.90
2018-07-11T00:39:36.767Z,13.90
2018-07-11T00:42:06.043Z,13.90
2018-07-11T00:44:35.328Z,13.90
2018-07-11T00:47:06.163Z,14.00
2018-07-11T00:49:35.396Z,14.00
2018-07-11T00:52:04.691Z,14.10
2018-07-11T00:54:33.918Z,14.10
2018-07-11T00:57:03.523Z,14.00
2018-07-11T00:59:33.593Z,14.10
2018-07-11T01:02:06.331Z,14.10
2018-07-11T01:04:35.871Z,14.10
2018-07-11T01:07:06.594Z,14.10
2018-07-11T01:09:47.531Z,14.10
2018-07-11T01:12:16.859Z,14.00
2018-07-11T01:14:46.678Z,15.10
2018-07-11T01:17:21.171Z,14.10
2018-07-11T01:19:51.606Z,14.10
2018-07-11T01:22:20.851Z,14.10
2018-07-11T01:24:50.047Z,14.10
2018-07-11T01:27:19.287Z,14.20
2018-07-11T01:29:50.103Z,14.20
2018-07-11T01:32:19.335Z,14.20
2018-07-11T01:34:49.544Z,14.20
2018-07-11T01:37:18.750Z,14.20
2018-07-11T01:39:48.010Z,14.30
2018-07-11T01:42:17.222Z,14.40
2018-07-11T01:44:46.456Z,14.40
2018-07-11T01:47:15.702Z,14.30
2018-07-11T01:49:44.926Z,14.30
2018-07-11T01:52:31.139Z,14.30
2018-07-11T01:55:00.408Z,14.20
2018-07-11T02:02:27.614Z,14.30
2018-07-11T02:04:56.902Z,14.30
2018-07-11T02:07:26.154Z,14.30
2018-07-11T02:09:55.459Z,14.40
2018-07-11T02:14:59.626Z,14.50
2018-07-11T02:17:28.854Z,14.50
2018-07-11T02:19:58.199Z,14.60
2018-07-11T02:22:28.059Z,14.60
2018-07-11T02:24:57.322Z,14.50
2018-07-11T02:27:26.613Z,14.50
2018-07-11T02:29:55.890Z,14.50
2018-07-11T02:32:25.148Z,14.50
2018-07-11T02:34:55.671Z,14.50
2018-07-11T02:37:24.963Z,14.40
2018-07-11T02:39:54.215Z,14.40
2018-07-11T02:42:23.608Z,14.40
2018-07-11T02:44:52.950Z,14.40
2018-07-11T02:47:28.491Z,14.50
2018-07-11T02:49:57.758Z,14.40
2018-07-11T02:52:26.991Z,14.50
2018-07-11T02:57:25.291Z,14.50
2018-07-11T02:59:54.563Z,14.50
2018-07-11T03:02:23.862Z,14.60
2018-07-11T03:04:54.874Z,14.50
2018-07-11T03:07:24.132Z,14.50
2018-07-11T03:09:53.426Z,14.50
2018-07-11T03:12:23.328Z,14.50
2018-07-11T03:14:53.046Z,14.50
2018-07-11T03:17:24.453Z,14.50
2018-07-11T03:19:53.730Z,14.50
2018-07-11T03:22:23.013Z,14.40
2018-07-11T03:24:52.315Z,14.50
2018-07-11T03:27:21.605Z,14.50
2018-07-11T03:29:50.875Z,14.50
2018-07-11T03:32:20.092Z,14.50
2018-07-11T03:34:49.314Z,14.50
2018-07-11T03:37:18.525Z,14.60
2018-07-11T03:42:16.907Z,14.60
2018-07-11T03:44:46.206Z,14.60
2018-07-11T03:47:15.739Z,14.60
2018-07-11T03:49:44.964Z,14.60
2018-07-11T03:52:14.224Z,14.60
2018-07-11T03:54:43.455Z,14.50
2018-07-11T03:57:12.702Z,14.50
2018-07-11T03:59:41.919Z,14.50
2018-07-11T04:02:11.170Z,14.50
2018-07-11T04:04:40.374Z,14.40
2018-07-11T04:07:09.674Z,14.50
2018-07-11T04:09:38.918Z,14.50
2018-07-11T04:12:08.170Z,14.50
2018-07-11T04:14:37.394Z,14.50
2018-07-11T04:17:06.629Z,14.50
2018-07-11T04:19:35.818Z,14.50
2018-07-11T04:22:05.059Z,14.50
2018-07-11T04:24:34.302Z,14.50
2018-07-11T04:27:03.538Z,14.60
2018-07-11T04:29:33.919Z,14.60
2018-07-11T04:32:03.149Z,14.60
2018-07-11T04:34:32.402Z,14.60
2018-07-11T04:37:03.071Z,14.60
2018-07-11T04:39:32.287Z,14.70
2018-07-11T04:42:01.589Z,14.70
2018-07-11T04:44:30.841Z,14.70
2018-07-11T04:47:00.159Z,14.70
2018-07-11T04:49:30.407Z,14.70
2018-07-11T04:51:59.632Z,14.80
2018-07-11T04:54:29.338Z,14.80
2018-07-11T04:56:58.652Z,14.80
2018-07-11T04:59:27.886Z,14.80
2018-07-11T05:01:57.180Z,14.90
2018-07-11T05:04:26.467Z,14.90
2018-07-11T05:06:55.795Z,14.90
2018-07-11T05:09:25.199Z,15.00
2018-07-11T05:11:54.590Z,15.00
2018-07-11T05:14:24.523Z,15.00
2018-07-11T05:16:53.825Z,14.90
2018-07-11T05:19:23.119Z,14.90
2018-07-11T05:21:52.508Z,14.80
2018-07-11T05:24:21.709Z,14.80
2018-07-11T05:26:50.998Z,14.80
2018-07-11T05:29:20.251Z,14.80
2018-07-11T05:31:49.513Z,14.80
2018-07-11T05:34:18.870Z,14.80
2018-07-11T05:36:48.121Z,14.90
2018-07-11T05:39:17.388Z,15.00
2018-07-11T05:41:46.726Z,15.20
2018-07-11T05:44:16.010Z,15.20
2018-07-11T05:46:45.246Z,15.30
2018-07-11T05:49:14.522Z,15.50
2018-07-11T05:51:43.863Z,15.70
2018-07-11T05:54:13.120Z,15.90
2018-07-11T05:56:42.343Z,16.20
2018-07-11T05:59:11.670Z,16.70
2018-07-11T06:01:40.920Z,17.60
2018-07-11T06:04:10.198Z,18.20
2018-07-11T06:06:39.527Z,18.40
2018-07-11T06:09:09.188Z,18.30
2018-07-11T06:11:45.259Z,18.40
2018-07-11T06:14:14.580Z,18.70
2018-07-11T06:16:44.920Z,18.80
2018-07-11T06:19:14.190Z,18.80
2018-07-11T06:21:46.378Z,19.50
2018-07-11T06:24:15.644Z,20.70
2018-07-11T06:26:44.931Z,21.70
2018-07-11T06:29:14.143Z,22.00
2018-07-11T06:31:43.409Z,22.50
2018-07-11T06:34:12.758Z,22.40
2018-07-11T06:36:42.005Z,22.00
2018-07-11T06:39:11.362Z,21.40
2018-07-11T06:41:40.635Z,20.30
2018-07-11T06:44:09.930Z,19.80
2018-07-11T06:46:39.735Z,19.50
2018-07-11T06:49:09.099Z,19.30
2018-07-11T06:51:38.370Z,19.10
2018-07-11T06:54:07.862Z,19.00
2018-07-11T06:56:37.095Z,18.60
2018-07-11T06:59:06.352Z,18.50
2018-07-11T07:01:35.566Z,18.40
2018-07-11T07:04:04.828Z,18.30
2018-07-11T07:06:34.055Z,18.10
2018-07-11T07:09:03.684Z,18.10
2018-07-11T07:11:32.903Z,18.40
2018-07-11T07:14:02.131Z,18.60
2018-07-11T07:16:31.447Z,19.00
2018-07-11T07:21:29.661Z,19.30
2018-07-11T07:23:58.878Z,18.90
2018-07-11T07:26:28.112Z,18.90
2018-07-11T07:28:57.367Z,18.90
2018-07-11T07:31:26.609Z,19.10
2018-07-11T07:33:55.825Z,19.10
2018-07-11T07:36:25.063Z,19.20
2018-07-11T07:38:54.422Z,19.00
2018-07-11T07:41:23.663Z,18.90
2018-07-11T07:43:53.023Z,18.60
2018-07-11T07:46:22.311Z,18.60
2018-07-11T07:48:51.594Z,18.50
2018-07-11T07:51:20.804Z,18.40
2018-07-11T07:53:50.195Z,18.60
2018-07-11T07:56:19.998Z,18.90
2018-07-11T07:58:49.215Z,19.00
2018-07-11T08:01:18.461Z,19.10
2018-07-11T08:03:47.659Z,19.10
2018-07-11T08:06:16.898Z,19.10
2018-07-11T08:08:46.108Z,19.40
2018-07-11T08:11:15.328Z,19.60
2018-07-11T08:13:44.534Z,19.70
2018-07-11T08:16:13.810Z,19.60
2018-07-11T08:18:43.021Z,19.80
2018-07-11T08:21:12.297Z,20.10
2018-07-11T08:23:58.553Z,20.20
2018-07-11T08:26:44.886Z,20.20
2018-07-11T08:32:02.478Z,20.10
2018-07-11T08:34:51.195Z,19.70
2018-07-11T08:37:38.341Z,19.60
2018-07-11T08:41:26.474Z,19.30
2018-07-11T08:46:20.607Z,19.20
2018-07-11T08:51:14.556Z,19.10
2018-07-11T08:56:11.011Z,18.70
2018-07-11T08:58:52.790Z,18.90
2018-07-11T09:06:50.610Z,19.20
2018-07-11T09:09:41.971Z,19.20
2018-07-11T09:14:33.185Z,19.60
2018-07-11T09:18:19.544Z,20.00
2018-07-11T09:23:34.600Z,20.30
2018-07-11T09:26:03.878Z,19.80
2018-07-11T09:28:33.089Z,20.00
2018-07-11T09:31:02.293Z,20.10
2018-07-11T09:33:31.508Z,20.00
2018-07-11T09:36:00.712Z,20.10
2018-07-11T09:38:30.004Z,20.30
2018-07-11T09:40:59.271Z,20.20
2018-07-11T09:43:28.519Z,20.30
2018-07-11T09:45:57.890Z,20.60
2018-07-11T09:48:27.205Z,21.10
2018-07-11T09:50:56.482Z,21.60
2018-07-11T09:53:25.780Z,21.80
2018-07-11T09:55:55.041Z,22.00
2018-07-11T09:58:24.293Z,21.60
2018-07-11T10:01:01.365Z,21.30
2018-07-11T10:03:31.199Z,21.10
2018-07-11T10:06:00.590Z,21.00
2018-07-11T10:08:29.940Z,20.80
2018-07-11T10:10:59.166Z,20.80
2018-07-11T10:13:28.438Z,20.30
2018-07-11T10:15:57.755Z,20.20
2018-07-11T10:18:27.008Z,20.20
2018-07-11T10:20:56.310Z,20.20
2018-07-11T10:23:25.528Z,20.20
2018-07-11T10:25:54.784Z,20.20
2018-07-11T10:28:24.041Z,20.00
2018-07-11T10:30:53.359Z,19.90
2018-07-11T10:33:22.571Z,19.80
2018-07-11T10:35:51.795Z,19.70
2018-07-11T10:38:21.653Z,19.70
2018-07-11T10:40:50.915Z,19.90
2018-07-11T10:43:20.203Z,20.10
2018-07-11T10:45:49.508Z,20.20
2018-07-11T10:48:18.774Z,20.10
2018-07-11T10:50:48.070Z,20.00
2018-07-11T10:53:17.343Z,20.10
2018-07-11T10:55:46.586Z,19.80
2018-07-11T10:58:15.826Z,19.40
2018-07-11T11:01:05.031Z,19.10
2018-07-11T11:03:14.732Z,19.00
2018-07-11T11:05:43.963Z,18.70
2018-07-11T11:08:13.234Z,18.50
2018-07-11T11:10:42.579Z,18.20
2018-07-11T11:13:11.848Z,18.20
2018-07-11T11:15:41.091Z,18.30
2018-07-11T11:18:10.245Z,18.40
2018-07-11T11:20:39.484Z,18.50
2018-07-11T11:23:08.826Z,18.80
2018-07-11T11:25:38.142Z,19.10
2018-07-11T11:28:07.427Z,19.50
2018-07-11T11:30:37.123Z,19.80
2018-07-11T11:33:06.552Z,20.00
2018-07-11T11:35:35.822Z,20.20
2018-07-11T11:38:05.226Z,20.30
2018-07-11T11:40:34.678Z,20.40
2018-07-11T11:43:03.990Z,20.60
2018-07-11T11:45:33.313Z,20.50
2018-07-11T11:48:03.553Z,20.80
2018-07-11T11:50:32.854Z,21.00
2018-07-11T11:53:02.443Z,21.10
2018-07-11T11:55:31.697Z,21.30
2018-07-11T11:58:01.184Z,21.20
2018-07-11T12:00:30.497Z,20.90
2018-07-11T12:02:59.807Z,20.80
2018-07-11T12:05:29.144Z,20.80
2018-07-11T12:07:58.439Z,20.70
2018-07-11T12:10:27.762Z,20.70
2018-07-11T12:12:57.027Z,20.60
2018-07-11T12:15:26.563Z,20.50
2018-07-11T12:17:55.787Z,20.20
2018-07-11T12:20:25.107Z,20.00
2018-07-11T12:22:54.557Z,19.90
2018-07-11T12:25:24.015Z,19.80
2018-07-11T12:27:53.358Z,19.80
2018-07-11T12:30:22.592Z,20.00
2018-07-11T12:32:51.901Z,20.20
2018-07-11T12:35:21.182Z,20.50
2018-07-11T12:40:19.510Z,20.50
2018-07-11T12:42:48.889Z,20.80
2018-07-11T12:45:18.274Z,20.90
2018-07-11T12:47:52.912Z,20.80
2018-07-11T12:50:22.202Z,20.70
2018-07-11T12:52:51.429Z,20.60
2018-07-11T12:55:20.725Z,20.40
2018-07-11T12:57:49.990Z,20.20
2018-07-11T13:00:19.274Z,20.10
2018-07-11T13:02:48.675Z,20.10
2018-07-11T13:05:18.053Z,19.90
2018-07-11T13:07:47.379Z,19.90
2018-07-11T13:10:16.724Z,19.90
2018-07-11T13:12:46.015Z,19.90
2018-07-11T13:15:15.308Z,19.90
2018-07-11T13:17:45.404Z,20.00
2018-07-11T13:20:14.705Z,19.80
2018-07-11T13:22:43.905Z,19.50
2018-07-11T13:25:13.212Z,19.50
2018-07-11T13:27:42.592Z,19.50
2018-07-11T13:30:11.902Z,19.60
2018-07-11T13:35:10.245Z,20.10
2018-07-11T13:37:39.520Z,20.30
2018-07-11T13:40:08.962Z,20.40
2018-07-11T13:42:38.981Z,20.30
2018-07-11T13:45:08.254Z,20.40
2018-07-11T13:47:37.529Z,20.60
2018-07-11T13:50:06.922Z,20.70
2018-07-11T13:52:36.298Z,20.70
2018-07-11T13:55:05.700Z,20.80
2018-07-11T14:00:04.251Z,20.50
2018-07-11T14:02:33.644Z,20.60
2018-07-11T14:05:03.102Z,20.60
2018-07-11T14:07:32.540Z,20.70
2018-07-11T14:10:01.843Z,21.10
2018-07-11T14:12:31.203Z,21.20
2018-07-11T14:15:00.581Z,21.00
2018-07-11T14:17:29.944Z,20.80
2018-07-11T14:19:59.454Z,20.50
2018-07-11T14:22:28.808Z,20.40
2018-07-11T14:24:58.196Z,20.40
2018-07-11T14:27:28.361Z,20.20
2018-07-11T14:29:59.348Z,20.00
2018-07-11T14:32:28.643Z,20.10
2018-07-11T14:34:58.008Z,20.40
2018-07-11T14:37:27.344Z,20.80
2018-07-11T14:39:56.644Z,21.10
2018-07-11T14:42:26.050Z,21.40
2018-07-11T14:44:55.127Z,21.50
2018-07-11T14:47:29.641Z,21.60
2018-07-11T14:49:59.182Z,21.40
2018-07-11T14:52:28.483Z,21.20
2018-07-11T14:54:57.743Z,21.20
2018-07-11T14:57:26.988Z,21.30
2018-07-11T14:59:56.240Z,21.20
2018-07-11T15:02:25.646Z,21.40
2018-07-11T15:04:54.954Z,21.80
2018-07-11T15:07:24.466Z,22.00
2018-07-11T15:09:53.799Z,22.30
2018-07-11T15:12:23.188Z,22.40
2018-07-11T15:14:52.892Z,22.50
2018-07-11T15:17:22.612Z,22.50
2018-07-11T15:19:51.983Z,22.40
2018-07-11T15:22:21.511Z,22.30
2018-07-11T15:24:50.910Z,22.00
2018-07-11T15:27:20.428Z,21.70
2018-07-11T15:29:49.853Z,21.70
2018-07-11T15:32:19.332Z,21.70
2018-07-11T15:34:48.743Z,21.70
2018-07-11T15:37:18.163Z,22.00
2018-07-11T15:39:47.556Z,22.10
2018-07-11T15:42:16.862Z,22.40
2018-07-11T15:44:46.311Z,22.70
2018-07-11T15:47:15.721Z,22.70
2018-07-11T15:52:14.396Z,22.30
2018-07-11T15:54:43.827Z,22.20
2018-07-11T15:57:14.215Z,22.30
2018-07-11T15:59:56.676Z,22.40
2018-07-11T16:02:26.010Z,22.60
2018-07-11T16:04:55.484Z,22.70
2018-07-11T16:07:28.358Z,22.80
2018-07-11T16:09:59.130Z,22.90
2018-07-11T16:12:28.485Z,22.70
2018-07-11T16:14:58.085Z,22.80
2018-07-11T16:17:27.552Z,22.80
2018-07-11T16:19:56.903Z,22.90
2018-07-11T16:22:26.272Z,22.90
2018-07-11T16:24:55.599Z,22.80
2018-07-11T16:27:24.985Z,22.60
2018-07-11T16:29:54.310Z,22.30
2018-07-11T16:32:23.610Z,22.00
2018-07-11T16:34:53.035Z,21.90
2018-07-11T16:37:22.411Z,21.90
2018-07-11T16:39:51.795Z,21.90
2018-07-11T16:42:21.209Z,22.00
2018-07-11T16:44:52.138Z,22.00
2018-07-11T16:47:22.175Z,22.00
2018-07-11T16:52:20.541Z,21.80
2018-07-11T16:54:49.986Z,21.80
2018-07-11T16:57:31.850Z,22.00
2018-07-11T17:00:07.324Z,22.40
2018-07-11T17:02:36.743Z,23.10
2018-07-11T17:05:09.092Z,23.60
2018-07-11T17:07:57.933Z,23.40
2018-07-11T17:10:29.475Z,22.90
2018-07-11T17:13:10.743Z,22.30
2018-07-11T17:15:40.918Z,21.70
2018-07-11T17:20:43.142Z,20.90
2018-07-11T17:23:12.642Z,20.70
2018-07-11T17:25:43.189Z,20.60
2018-07-11T17:28:12.798Z,20.50
2018-07-11T17:30:43.555Z,20.40
2018-07-11T17:33:13.811Z,20.30
2018-07-11T17:35:50.562Z,20.30
2018-07-11T17:38:25.814Z,20.30
2018-07-11T17:40:55.298Z,20.30
2018-07-11T17:43:36.987Z,20.40
2018-07-11T17:46:06.939Z,20.40
2018-07-11T17:49:11.196Z,20.30
2018-07-11T17:52:07.382Z,20.20
2018-07-11T17:55:18.217Z,20.10
2018-07-11T17:57:56.218Z,20.10
2018-07-11T18:00:35.729Z,20.10
2018-07-11T18:03:15.038Z,20.00
2018-07-11T18:06:42.604Z,19.90
2018-07-11T18:09:14.351Z,19.80
2018-07-11T18:12:13.810Z,19.80
2018-07-11T18:14:56.591Z,19.70
2018-07-11T18:19:55.785Z,19.70
2018-07-11T18:22:36.242Z,19.60
2018-07-11T18:28:27.648Z,19.60
2018-07-11T18:31:29.692Z,19.40
2018-07-11T18:34:32.961Z,19.40
2018-07-11T18:39:22.163Z,19.40
2018-07-11T18:42:07.237Z,19.30
2018-07-11T18:47:33.025Z,19.20
2018-07-11T18:50:19.177Z,19.00
2018-07-11T18:52:57.872Z,18.90
2018-07-11T18:56:39.679Z,18.80
2018-07-11T18:59:59.203Z,18.80
2018-07-11T19:02:47.744Z,18.60
2018-07-11T19:05:27.101Z,18.50
2018-07-11T19:08:09.231Z,18.60
2018-07-11T19:11:15.207Z,18.50
2018-07-11T19:13:48.332Z,18.30
2018-07-11T19:16:26.467Z,18.20
2018-07-11T19:19:02.349Z,18.10
2018-07-11T19:23:51.787Z,18.00
2018-07-11T19:26:47.387Z,18.00
2018-07-11T19:30:29.738Z,17.90
2018-07-11T19:33:43.711Z,17.90
2018-07-11T19:36:30.057Z,17.90
2018-07-11T19:39:07.465Z,17.80
2018-07-11T19:42:01.893Z,17.80
2018-07-11T19:44:51.051Z,17.80
2018-07-11T19:47:41.565Z,17.80
2018-07-11T19:50:27.373Z,17.70
2018-07-11T19:53:13.521Z,17.80
2018-07-11T19:56:49.023Z,17.80
2018-07-11T19:59:18.708Z,17.70
2018-07-11T20:01:48.136Z,17.60
2018-07-11T20:04:17.733Z,17.50
2018-07-11T20:06:47.110Z,17.50
2018-07-11T20:09:16.497Z,17.40
2018-07-11T20:11:45.851Z,17.40
2018-07-11T20:14:15.219Z,17.30
2018-07-11T20:16:44.554Z,17.30
2018-07-11T20:19:13.813Z,17.20
2018-07-11T20:21:43.207Z,17.10
2018-07-11T20:24:12.591Z,17.10
2018-07-11T20:26:41.925Z,17.10
2018-07-11T20:29:11.296Z,17.10
2018-07-11T20:31:40.767Z,17.20
2018-07-11T20:34:10.075Z,17.20
2018-07-11T20:36:39.346Z,17.10
2018-07-11T20:39:08.613Z,17.20
2018-07-11T20:41:38.403Z,17.10
2018-07-11T20:44:07.659Z,17.10
2018-07-11T20:46:36.988Z,17.10
2018-07-11T20:49:11.426Z,17.10
2018-07-11T20:51:40.708Z,17.00
2018-07-11T20:56:39.135Z,17.00
2018-07-11T21:04:07.891Z,16.90
2018-07-11T21:07:11.113Z,16.90
2018-07-11T21:10:01.446Z,16.90
2018-07-11T21:12:52.621Z,16.80
2018-07-11T21:20:52.079Z,16.80
2018-07-11T21:23:21.445Z,16.80
2018-07-11T21:28:19.759Z,16.70
2018-07-11T21:30:49.072Z,16.70
2018-07-11T21:33:18.410Z,16.70
2018-07-11T21:35:47.709Z,16.70
2018-07-11T21:38:17.055Z,16.70
2018-07-11T21:40:46.485Z,16.70
2018-07-11T21:43:15.835Z,16.70
2018-07-11T21:45:45.179Z,16.70
2018-07-11T21:48:14.568Z,16.60
2018-07-11T21:50:44.086Z,16.60
2018-07-11T21:55:42.587Z,16.50
2018-07-11T21:58:12.045Z,16.50
2018-07-11T22:00:41.871Z,16.50
2018-07-11T22:03:11.143Z,16.50
2018-07-11T22:05:40.454Z,16.50
2018-07-11T22:08:09.889Z,16.60
2018-07-11T22:10:39.935Z,16.60
2018-07-11T22:13:09.738Z,16.60
2018-07-11T22:15:39.027Z,16.60
2018-07-11T22:18:25.440Z,16.60
2018-07-11T22:20:53.183Z,16.60
2018-07-11T22:23:20.871Z,16.60
2018-07-11T22:25:48.595Z,16.60
2018-07-11T22:28:16.278Z,16.50
2018-07-11T22:30:44.035Z,16.50
2018-07-11T22:33:11.727Z,16.50
2018-07-11T22:35:39.463Z,16.40
2018-07-11T22:38:07.145Z,16.40
2018-07-11T22:40:35.123Z,16.40
2018-07-11T22:43:02.830Z,16.40
2018-07-11T22:45:30.545Z,16.40
2018-07-11T22:47:58.486Z,16.50
2018-07-11T22:50:26.386Z,16.50
2018-07-11T22:52:54.079Z,16.50
2018-07-11T22:55:21.774Z,16.50
2018-07-11T22:57:49.604Z,16.60
2018-07-11T23:00:17.612Z,16.70
2018-07-11T23:02:45.416Z,16.70
2018-07-11T23:05:13.133Z,16.70
2018-07-11T23:07:40.850Z,16.70
2018-07-11T23:10:08.547Z,16.70
2018-07-11T23:12:36.235Z,16.70
2018-07-11T23:15:03.974Z,16.70
2018-07-11T23:17:31.645Z,16.60
2018-07-11T23:19:59.342Z,16.60
2018-07-11T23:22:27.052Z,16.60
2018-07-11T23:24:54.738Z,16.60
2018-07-11T23:27:22.434Z,16.70
2018-07-11T23:29:50.110Z,16.70
2018-07-11T23:32:17.829Z,16.70
2018-07-11T23:34:45.495Z,16.70
2018-07-11T23:37:13.220Z,16.70
2018-07-11T23:39:40.912Z,16.70
2018-07-11T23:42:08.611Z,16.70
2018-07-11T23:44:36.310Z,16.70
2018-07-11T23:47:04.073Z,16.80
2018-07-11T23:49:31.755Z,16.90
2018-07-11T23:51:59.464Z,16.80
2018-07-11T23:54:27.160Z,16.80
2018-07-11T23:59:22.833Z,16.80
